createdAt,value
2023-03-26T00:02:12.999Z,8.96
2023-03-26T00:04:40.878Z,8.92
2023-03-26T00:07:07.404Z,8.89
2023-03-26T00:09:33.907Z,8.94
2023-03-26T00:12:00.413Z,8.86
2023-03-26T00:14:26.881Z,8.88
2023-03-26T00:16:53.374Z,8.89
2023-03-26T00:19:19.851Z,8.90
2023-03-26T00:21:47.687Z,8.92
2023-03-26T00:24:14.360Z,8.93
2023-03-26T00:26:40.873Z,8.93
2023-03-26T00:29:07.597Z,8.92
2023-03-26T00:31:34.764Z,8.83
2023-03-26T00:34:01.449Z,8.83
2023-03-26T00:36:28.064Z,8.80
2023-03-26T00:38:55.934Z,8.80
2023-03-26T00:41:24.820Z,8.75
2023-03-26T00:43:52.932Z,8.73
2023-03-26T00:46:19.640Z,8.70
2023-03-26T00:48:46.993Z,8.68
2023-03-26T00:51:15.637Z,8.63
2023-03-26T00:53:43.081Z,8.59
2023-03-26T00:56:11.524Z,8.54
2023-03-26T00:58:38.441Z,8.51
2023-03-26T01:01:08.042Z,8.45
2023-03-26T01:03:36.708Z,8.40
2023-03-26T01:06:04.913Z,8.34
2023-03-26T01:08:33.402Z,8.27
2023-03-26T01:11:06.001Z,8.23
2023-03-26T01:13:37.078Z,8.18
2023-03-26T01:16:09.402Z,8.12
2023-03-26T01:18:37.216Z,8.08
2023-03-26T01:21:03.999Z,8.04
2023-03-26T01:23:40.799Z,7.96
2023-03-26T01:26:16.945Z,7.93
2023-03-26T01:28:43.544Z,7.92
2023-03-26T01:31:15.173Z,7.88
2023-03-26T01:33:48.969Z,7.83
2023-03-26T01:36:21.353Z,7.81
2023-03-26T01:38:53.162Z,7.75
2023-03-26T01:41:28.184Z,7.70
2023-03-26T01:44:00.494Z,7.67
2023-03-26T01:46:28.850Z,7.64
2023-03-26T01:48:55.360Z,7.62
2023-03-26T01:51:31.334Z,7.60
2023-03-26T01:53:59.309Z,7.59
2023-03-26T01:56:36.086Z,7.57
2023-03-26T01:59:16.144Z,7.56
2023-03-26T02:01:49.288Z,7.56
2023-03-26T02:04:22.762Z,7.56
2023-03-26T02:06:57.517Z,7.57
2023-03-26T02:09:30.786Z,7.57
2023-03-26T02:12:00.550Z,7.57
2023-03-26T02:14:29.624Z,7.60
2023-03-26T02:16:56.153Z,7.62
2023-03-26T02:19:22.702Z,7.63
2023-03-26T02:21:49.243Z,7.63
2023-03-26T02:24:15.768Z,7.65
2023-03-26T02:26:42.263Z,7.66
2023-03-26T02:29:10.930Z,7.68
2023-03-26T02:31:37.489Z,7.68
2023-03-26T02:34:04.043Z,7.69
2023-03-26T02:36:30.756Z,7.69
2023-03-26T02:38:57.394Z,7.69
2023-03-26T02:41:23.879Z,7.70
2023-03-26T02:43:50.355Z,7.70
2023-03-26T02:46:18.257Z,7.71
2023-03-26T02:48:44.841Z,7.72
2023-03-26T02:51:11.355Z,7.75
2023-03-26T02:53:37.844Z,7.74
2023-03-26T02:56:05.052Z,7.76
2023-03-26T02:58:31.522Z,7.76
2023-03-26T03:00:58.038Z,7.76
2023-03-26T03:03:27.216Z,7.78
2023-03-26T03:05:54.941Z,7.79
2023-03-26T03:08:23.922Z,7.81
2023-03-26T03:10:56.717Z,7.82
2023-03-26T03:13:23.260Z,7.83
2023-03-26T03:15:49.740Z,7.86
2023-03-26T03:18:16.225Z,7.87
2023-03-26T03:20:44.557Z,7.90
2023-03-26T03:23:11.069Z,7.91
2023-03-26T03:25:37.581Z,7.95
2023-03-26T03:28:04.534Z,7.97
2023-03-26T03:30:31.076Z,7.95
2023-03-26T03:32:57.630Z,7.98
2023-03-26T03:35:24.223Z,8.00
2023-03-26T03:37:52.067Z,8.02
2023-03-26T03:40:18.656Z,8.03
2023-03-26T03:42:45.289Z,8.08
2023-03-26T03:45:12.539Z,8.06
2023-03-26T03:47:39.352Z,8.08
2023-03-26T03:50:07.282Z,8.08
2023-03-26T03:52:33.798Z,8.10
2023-03-26T03:55:01.963Z,8.09
2023-03-26T03:57:29.837Z,8.10
2023-03-26T03:59:56.334Z,8.09
2023-03-26T04:02:22.883Z,8.10
2023-03-26T04:04:49.391Z,8.08
2023-03-26T04:07:15.909Z,8.09
2023-03-26T04:09:42.374Z,8.08
2023-03-26T04:12:10.206Z,8.07
2023-03-26T04:14:36.649Z,8.08
2023-03-26T04:17:03.137Z,8.08
2023-03-26T04:19:29.601Z,8.02
2023-03-26T04:21:56.089Z,8.03
2023-03-26T04:24:22.645Z,8.01
2023-03-26T04:26:49.414Z,8.00
2023-03-26T04:29:18.058Z,7.99
2023-03-26T04:31:44.589Z,7.98
2023-03-26T04:34:20.249Z,7.97
2023-03-26T04:36:46.723Z,7.96
2023-03-26T04:39:13.355Z,7.95
2023-03-26T04:41:39.901Z,7.92
2023-03-26T04:44:06.384Z,7.91
2023-03-26T04:46:34.319Z,7.89
2023-03-26T04:49:01.296Z,7.85
2023-03-26T04:51:34.887Z,7.80
2023-03-26T04:54:01.349Z,7.74
2023-03-26T04:56:39.089Z,7.73
2023-03-26T04:59:05.764Z,7.70
2023-03-26T05:01:33.748Z,7.70
2023-03-26T05:04:00.321Z,7.68
2023-03-26T05:06:27.676Z,7.67
2023-03-26T05:08:54.643Z,7.61
2023-03-26T05:11:21.174Z,7.59
2023-03-26T05:13:47.671Z,7.60
2023-03-26T05:16:14.202Z,7.60
2023-03-26T05:18:42.122Z,7.63
2023-03-26T05:21:08.658Z,7.66
2023-03-26T05:23:35.134Z,7.69
2023-03-26T05:26:01.681Z,7.73
2023-03-26T05:28:28.211Z,7.73
2023-03-26T05:30:55.005Z,7.74
2023-03-26T05:33:22.209Z,7.73
2023-03-26T05:35:59.276Z,7.71
2023-03-26T05:38:25.829Z,7.73
2023-03-26T05:40:57.667Z,7.72
2023-03-26T05:43:24.175Z,7.73
2023-03-26T05:45:50.722Z,7.73
2023-03-26T05:48:17.265Z,7.72
2023-03-26T05:50:44.389Z,7.70
2023-03-26T05:53:12.178Z,7.69
2023-03-26T05:55:38.705Z,7.71
2023-03-26T05:58:05.208Z,7.70
2023-03-26T06:00:31.893Z,7.71
2023-03-26T06:02:58.578Z,7.74
2023-03-26T06:05:25.295Z,7.74
2023-03-26T06:07:51.941Z,7.72
2023-03-26T06:10:19.865Z,7.70
2023-03-26T06:12:46.408Z,7.66
2023-03-26T06:15:12.979Z,7.67
2023-03-26T06:17:39.515Z,7.72
2023-03-26T06:20:09.220Z,7.74
2023-03-26T06:22:36.226Z,7.77
2023-03-26T06:25:02.824Z,7.81
2023-03-26T06:27:30.655Z,7.81
2023-03-26T06:29:57.181Z,7.82
2023-03-26T06:32:23.750Z,7.81
2023-03-26T06:34:50.211Z,7.79
2023-03-26T06:37:16.846Z,7.76
2023-03-26T06:39:43.373Z,7.73
2023-03-26T06:42:09.868Z,7.78
2023-03-26T06:44:37.808Z,7.81
2023-03-26T06:47:04.331Z,7.80
2023-03-26T06:49:31.043Z,7.82
2023-03-26T06:51:57.556Z,7.79
2023-03-26T06:54:24.060Z,7.77
2023-03-26T06:56:50.645Z,7.80
2023-03-26T06:59:17.116Z,7.81
2023-03-26T07:01:46.436Z,7.82
2023-03-26T07:04:13.293Z,7.84
2023-03-26T07:06:39.800Z,7.87
2023-03-26T07:09:06.323Z,7.86
2023-03-26T07:11:32.851Z,7.86
2023-03-26T07:13:59.344Z,7.89
2023-03-26T07:16:25.926Z,7.94
2023-03-26T07:18:53.760Z,7.97
2023-03-26T07:21:20.908Z,8.01
2023-03-26T07:23:48.499Z,8.00
2023-03-26T07:26:25.961Z,8.01
2023-03-26T07:29:03.762Z,8.02
2023-03-26T07:31:37.274Z,8.00
2023-03-26T07:34:17.325Z,7.98
2023-03-26T07:36:52.052Z,8.01
2023-03-26T07:39:33.031Z,8.02
2023-03-26T07:42:05.418Z,8.03
2023-03-26T07:44:41.487Z,8.02
2023-03-26T07:47:19.999Z,8.05
2023-03-26T07:49:48.623Z,8.08
2023-03-26T07:52:15.547Z,8.09
2023-03-26T07:54:42.494Z,8.06
2023-03-26T07:57:18.889Z,8.02
2023-03-26T07:59:51.400Z,8.04
2023-03-26T08:02:36.989Z,8.06
2023-03-26T08:05:13.991Z,8.10
2023-03-26T08:07:52.704Z,8.13
2023-03-26T08:10:26.194Z,8.15
2023-03-26T08:12:57.840Z,8.17
2023-03-26T08:15:30.888Z,8.17
2023-03-26T08:18:03.411Z,8.19
2023-03-26T08:20:39.997Z,8.22
2023-03-26T08:23:13.901Z,8.27
2023-03-26T08:25:50.204Z,8.28
2023-03-26T08:28:29.381Z,8.34
2023-03-26T08:30:56.353Z,8.33
2023-03-26T08:33:26.438Z,8.32
2023-03-26T08:35:54.270Z,8.32
2023-03-26T08:38:21.513Z,8.31
2023-03-26T08:41:07.793Z,8.35
2023-03-26T08:43:55.595Z,8.37
2023-03-26T08:46:41.126Z,8.35
2023-03-26T08:49:49.114Z,8.35
2023-03-26T08:52:50.819Z,8.35
2023-03-26T08:55:39.790Z,8.40
2023-03-26T08:58:36.594Z,8.35
2023-03-26T09:01:24.135Z,8.39
2023-03-26T09:04:11.659Z,8.37
2023-03-26T09:07:14.642Z,8.41
2023-03-26T09:10:16.389Z,8.40
2023-03-26T09:13:19.891Z,8.37
2023-03-26T09:16:02.802Z,8.41
2023-03-26T09:18:55.765Z,8.46
2023-03-26T09:21:41.223Z,8.45
2023-03-26T09:24:40.847Z,8.44
2023-03-26T09:27:29.041Z,8.32
2023-03-26T09:30:26.372Z,8.33
2023-03-26T09:33:14.394Z,8.35
2023-03-26T09:36:28.389Z,8.40
2023-03-26T09:39:08.113Z,8.43
2023-03-26T09:41:42.475Z,8.48
2023-03-26T09:44:43.151Z,8.39
2023-03-26T09:47:27.552Z,8.38
2023-03-26T09:50:04.126Z,8.35
2023-03-26T09:52:49.640Z,8.36
2023-03-26T09:55:37.961Z,8.38
2023-03-26T09:58:27.539Z,8.42
2023-03-26T10:00:59.878Z,8.44
2023-03-26T10:03:38.317Z,8.42
2023-03-26T10:06:27.642Z,8.43
2023-03-26T10:09:24.316Z,8.44
2023-03-26T10:12:02.553Z,8.47
2023-03-26T10:14:35.000Z,8.51
2023-03-26T10:17:14.848Z,8.44
2023-03-26T10:20:19.156Z,8.45
2023-03-26T10:22:56.430Z,8.47
2023-03-26T10:25:35.154Z,8.48
2023-03-26T10:28:20.737Z,8.55
2023-03-26T10:31:08.288Z,8.57
2023-03-26T10:33:50.659Z,8.59
2023-03-26T10:36:33.557Z,8.68
2023-03-26T10:39:36.917Z,8.76
2023-03-26T10:42:19.065Z,8.79
2023-03-26T10:45:02.731Z,8.89
2023-03-26T10:47:58.948Z,8.94
2023-03-26T10:50:41.734Z,9.09
2023-03-26T10:53:15.600Z,9.19
2023-03-26T10:55:44.768Z,9.25
2023-03-26T10:58:17.386Z,9.23
2023-03-26T11:00:50.732Z,9.27
2023-03-26T11:03:32.285Z,9.28
2023-03-26T11:06:10.637Z,9.35
2023-03-26T11:08:45.670Z,9.39
2023-03-26T11:11:23.521Z,9.45
2023-03-26T11:13:59.328Z,9.46
2023-03-26T11:16:32.273Z,9.58
2023-03-26T11:19:05.692Z,9.58
2023-03-26T11:21:43.124Z,9.60
2023-03-26T11:24:32.883Z,9.57
2023-03-26T11:27:14.927Z,9.63
2023-03-26T11:29:52.173Z,9.74
2023-03-26T11:32:24.362Z,9.76
2023-03-26T11:34:59.268Z,9.81
2023-03-26T11:37:33.125Z,9.77
2023-03-26T11:40:01.579Z,9.80
2023-03-26T11:42:28.452Z,9.85
2023-03-26T11:44:57.360Z,9.86
2023-03-26T11:47:31.587Z,9.92
2023-03-26T11:50:00.571Z,9.99
2023-03-26T11:52:28.581Z,9.95
2023-03-26T11:54:55.154Z,10.04
2023-03-26T11:57:25.135Z,10.02
2023-03-26T11:59:58.122Z,9.84
2023-03-26T12:02:28.420Z,9.78
2023-03-26T12:05:12.179Z,9.70
2023-03-26T12:07:46.344Z,9.75
2023-03-26T12:10:29.575Z,9.80
2023-03-26T12:12:58.502Z,9.77
2023-03-26T12:15:25.964Z,9.68
2023-03-26T12:21:17.243Z,9.71
2023-03-26T12:23:54.289Z,9.57
2023-03-26T12:26:29.590Z,9.61
2023-03-26T12:28:56.095Z,9.68
2023-03-26T12:31:23.013Z,9.68
2023-03-26T12:34:06.707Z,9.68
2023-03-26T12:36:34.528Z,9.72
2023-03-26T12:40:08.889Z,9.73
2023-03-26T12:44:49.932Z,9.81
2023-03-26T12:45:13.739Z,9.86
2023-03-26T12:48:00.651Z,9.94
2023-03-26T12:50:40.179Z,9.93
2023-03-26T12:53:22.327Z,9.88
2023-03-26T12:56:00.701Z,9.85
2023-03-26T12:59:08.927Z,9.80
2023-03-26T13:01:45.399Z,9.76
2023-03-26T13:04:27.397Z,9.74
2023-03-26T13:07:01.493Z,9.71
2023-03-26T13:09:51.052Z,9.56
2023-03-26T13:12:33.058Z,9.52
2023-03-26T13:15:17.326Z,9.42
2023-03-26T13:17:52.711Z,9.43
2023-03-26T13:20:29.140Z,9.33
2023-03-26T13:23:06.913Z,9.44
2023-03-26T13:25:41.068Z,9.50
2023-03-26T13:28:21.444Z,9.57
2023-03-26T13:30:58.022Z,9.61
2023-03-26T13:33:39.793Z,9.60
2023-03-26T13:36:22.638Z,9.65
2023-03-26T13:39:03.161Z,9.58
2023-03-26T13:41:42.683Z,9.63
2023-03-26T13:44:19.286Z,9.67
2023-03-26T13:46:50.405Z,9.76
2023-03-26T13:49:23.066Z,9.73
2023-03-26T13:51:53.645Z,9.80
2023-03-26T13:54:26.280Z,9.84
2023-03-26T13:56:59.762Z,9.93
2023-03-26T13:59:35.361Z,9.95
2023-03-26T14:02:08.829Z,10.03
2023-03-26T14:04:40.470Z,10.11
2023-03-26T14:07:14.583Z,10.10
2023-03-26T14:09:47.166Z,10.09
2023-03-26T14:12:27.515Z,10.09
2023-03-26T14:15:00.162Z,10.09
2023-03-26T14:17:30.925Z,9.94
2023-03-26T14:20:50.026Z,10.06
2023-03-26T14:23:34.370Z,10.15
2023-03-26T14:26:15.226Z,9.92
2023-03-26T14:29:13.978Z,9.89
2023-03-26T14:31:47.503Z,9.75
2023-03-26T14:34:28.713Z,9.79
2023-03-26T14:37:27.200Z,9.69
2023-03-26T14:40:07.525Z,9.70
2023-03-26T14:42:41.225Z,9.67
2023-03-26T14:45:34.969Z,9.50
2023-03-26T14:48:32.986Z,9.52
2023-03-26T14:51:11.983Z,9.38
2023-03-26T14:53:43.286Z,9.40
2023-03-26T14:56:35.892Z,9.39
2023-03-26T14:59:32.129Z,9.45
2023-03-26T15:02:37.193Z,9.48
2023-03-26T15:05:38.414Z,9.58
2023-03-26T15:08:37.550Z,9.57
2023-03-26T15:11:21.210Z,9.47
2023-03-26T15:13:59.299Z,9.56
2023-03-26T15:17:07.971Z,9.22
2023-03-26T15:20:10.454Z,9.13
2023-03-26T15:23:05.415Z,9.13
2023-03-26T15:25:57.987Z,8.94
2023-03-26T15:29:11.964Z,8.99
2023-03-26T15:32:03.264Z,8.95
2023-03-26T15:35:16.566Z,8.85
2023-03-26T15:38:20.188Z,8.89
2023-03-26T15:40:56.659Z,8.96
2023-03-26T15:43:31.273Z,8.66
2023-03-26T15:46:25.749Z,8.85
2023-03-26T15:48:59.581Z,8.91
2023-03-26T15:51:46.537Z,8.77
2023-03-26T15:54:24.590Z,8.78
2023-03-26T15:57:19.111Z,8.82
2023-03-26T16:00:06.136Z,8.89
2023-03-26T16:02:41.382Z,8.96
2023-03-26T16:05:35.682Z,9.12
2023-03-26T16:08:07.302Z,9.05
2023-03-26T16:10:41.423Z,8.89
2023-03-26T16:13:30.112Z,8.91
2023-03-26T16:16:21.502Z,9.05
2023-03-26T16:22:02.318Z,8.92
2023-03-26T16:24:32.941Z,8.76
2023-03-26T16:27:27.291Z,8.93
2023-03-26T16:30:14.578Z,9.01
2023-03-26T16:32:44.058Z,8.94
2023-03-26T16:35:40.132Z,8.99
2023-03-26T16:38:12.344Z,9.08
2023-03-26T16:40:57.671Z,9.13
2023-03-26T16:43:51.718Z,9.13
2023-03-26T16:46:28.634Z,8.90
2023-03-26T16:49:00.812Z,8.98
2023-03-26T16:51:41.994Z,8.82
2023-03-26T16:54:16.814Z,8.88
2023-03-26T16:56:50.701Z,8.79
2023-03-26T16:59:42.782Z,8.76
2023-03-26T17:02:22.815Z,8.76
2023-03-26T17:04:55.745Z,8.62
2023-03-26T17:07:29.545Z,8.73
2023-03-26T17:10:07.277Z,8.84
2023-03-26T17:12:40.658Z,8.85
2023-03-26T17:15:18.348Z,8.82
2023-03-26T17:18:20.647Z,8.81
2023-03-26T17:20:57.204Z,8.88
2023-03-26T17:23:43.358Z,8.78
2023-03-26T17:26:16.572Z,8.80
2023-03-26T17:28:53.988Z,8.60
2023-03-26T17:31:33.085Z,8.71
2023-03-26T17:34:34.030Z,8.58
2023-03-26T17:37:03.739Z,8.57
2023-03-26T17:40:36.185Z,8.62
2023-03-26T17:43:08.065Z,8.39
2023-03-26T17:45:37.135Z,8.38
2023-03-26T17:48:12.692Z,8.46
2023-03-26T17:50:48.004Z,8.37
2023-03-26T17:53:23.266Z,8.37
2023-03-26T17:55:52.098Z,8.26
2023-03-26T17:58:26.500Z,8.26
2023-03-26T18:01:01.230Z,8.24
2023-03-26T18:03:32.142Z,8.11
2023-03-26T18:06:07.333Z,8.19
2023-03-26T18:09:04.350Z,8.08
2023-03-26T18:12:03.825Z,8.08
2023-03-26T18:14:53.782Z,7.97
2023-03-26T18:17:20.313Z,7.98
2023-03-26T18:19:49.947Z,7.94
2023-03-26T18:22:25.291Z,7.97
2023-03-26T18:24:57.070Z,7.95
2023-03-26T18:27:23.879Z,7.79
2023-03-26T18:30:01.718Z,7.93
2023-03-26T18:32:31.529Z,7.86
2023-03-26T18:35:01.430Z,7.77
2023-03-26T18:37:29.683Z,7.87
2023-03-26T18:39:58.881Z,7.81
2023-03-26T18:42:27.352Z,7.75
2023-03-26T18:44:59.832Z,7.91
2023-03-26T18:47:29.895Z,7.80
2023-03-26T18:49:58.181Z,7.85
2023-03-26T18:52:28.128Z,7.76
2023-03-26T18:54:56.508Z,7.63
2023-03-26T18:57:24.851Z,7.64
2023-03-26T18:59:53.035Z,7.54
2023-03-26T19:02:20.830Z,7.45
2023-03-26T19:04:49.145Z,7.50
2023-03-26T19:07:18.597Z,7.52
2023-03-26T19:09:46.559Z,7.71
2023-03-26T19:12:19.805Z,7.60
2023-03-26T19:14:56.021Z,7.58
2023-03-26T19:17:26.502Z,7.53
2023-03-26T19:19:55.179Z,7.54
2023-03-26T19:22:25.206Z,7.74
2023-03-26T19:24:56.750Z,7.54
2023-03-26T19:27:23.563Z,7.54
2023-03-26T19:29:50.374Z,7.39
2023-03-26T19:32:18.766Z,7.35
2023-03-26T19:34:47.151Z,7.50
2023-03-26T19:37:19.909Z,7.41
2023-03-26T19:39:48.270Z,7.37
2023-03-26T19:42:19.891Z,7.43
2023-03-26T19:44:46.599Z,7.27
2023-03-26T19:47:17.446Z,7.28
2023-03-26T19:49:50.758Z,7.25
2023-03-26T19:52:21.909Z,7.30
2023-03-26T19:55:00.621Z,7.32
2023-03-26T19:57:29.811Z,7.38
2023-03-26T19:59:56.465Z,7.36
2023-03-26T20:02:23.342Z,7.18
2023-03-26T20:04:50.377Z,7.09
2023-03-26T20:07:18.847Z,7.02
2023-03-26T20:09:48.269Z,7.11
2023-03-26T20:12:19.390Z,7.15
2023-03-26T20:14:47.646Z,7.07
2023-03-26T20:17:16.926Z,6.91
2023-03-26T20:19:43.737Z,6.93
2023-03-26T20:22:15.058Z,7.12
2023-03-26T20:24:42.376Z,6.92
2023-03-26T20:27:08.895Z,6.88
2023-03-26T20:29:35.410Z,6.78
2023-03-26T20:32:03.349Z,6.91
2023-03-26T20:34:29.876Z,6.81
2023-03-26T20:36:56.359Z,6.85
2023-03-26T20:39:27.773Z,6.70
2023-03-26T20:41:55.162Z,6.67
2023-03-26T20:44:22.071Z,6.71
2023-03-26T20:46:49.830Z,6.76
2023-03-26T20:49:18.312Z,6.56
2023-03-26T20:51:45.248Z,6.69
2023-03-26T20:54:16.213Z,6.86
2023-03-26T20:56:43.065Z,6.66
2023-03-26T20:59:17.434Z,6.67
2023-03-26T21:01:43.907Z,6.52
2023-03-26T21:04:10.394Z,6.69
2023-03-26T21:06:38.311Z,6.52
2023-03-26T21:09:05.693Z,6.66
2023-03-26T21:11:44.838Z,6.46
2023-03-26T21:14:18.477Z,6.46
2023-03-26T21:16:45.483Z,6.55
2023-03-26T21:19:12.661Z,6.31
2023-03-26T21:21:50.424Z,6.29
2023-03-26T21:24:25.868Z,6.09
2023-03-26T21:26:58.566Z,6.02
2023-03-26T21:29:25.530Z,6.12
2023-03-26T21:31:54.119Z,5.97
2023-03-26T21:34:21.283Z,6.02
2023-03-26T21:36:49.771Z,6.04
2023-03-26T21:39:16.748Z,5.90
2023-03-26T21:41:46.818Z,5.76
2023-03-26T21:44:13.589Z,5.69
2023-03-26T21:46:42.212Z,5.78
2023-03-26T21:49:09.212Z,5.59
2023-03-26T21:51:36.247Z,5.63
2023-03-26T21:54:05.500Z,5.48
2023-03-26T21:56:42.415Z,5.40
2023-03-26T21:59:18.507Z,5.49
2023-03-26T22:01:51.681Z,5.31
2023-03-26T22:04:28.320Z,5.27
2023-03-26T22:07:00.690Z,5.27
2023-03-26T22:09:36.416Z,5.05
2023-03-26T22:12:03.572Z,5.10
2023-03-26T22:14:30.137Z,5.17
2023-03-26T22:16:56.885Z,5.12
2023-03-26T22:19:23.375Z,5.16
2023-03-26T22:21:49.902Z,5.03
2023-03-26T22:24:16.555Z,4.90
2023-03-26T22:26:44.388Z,4.86
2023-03-26T22:29:11.446Z,4.84
2023-03-26T22:31:38.426Z,4.75
2023-03-26T22:34:05.379Z,4.77
2023-03-26T22:36:32.283Z,4.65
2023-03-26T22:38:58.816Z,4.63
2023-03-26T22:41:25.725Z,4.56
2023-03-26T22:43:55.341Z,4.51
2023-03-26T22:46:22.793Z,4.43
2023-03-26T22:48:49.350Z,4.41
2023-03-26T22:51:16.090Z,4.39
2023-03-26T22:53:42.921Z,4.53
2023-03-26T22:56:10.338Z,4.38
2023-03-26T22:58:37.216Z,4.34
2023-03-26T23:01:08.127Z,4.29
2023-03-26T23:03:35.757Z,4.23
2023-03-26T23:06:05.243Z,4.18
2023-03-26T23:08:32.720Z,4.12
2023-03-26T23:10:59.295Z,4.10
2023-03-26T23:13:26.122Z,4.16
2023-03-26T23:15:56.504Z,4.05
2023-03-26T23:18:24.620Z,3.98
2023-03-26T23:20:52.125Z,3.87
2023-03-26T23:23:20.211Z,3.86
2023-03-26T23:25:46.737Z,3.79
2023-03-26T23:28:13.308Z,3.75
2023-03-26T23:30:39.823Z,3.76
2023-03-26T23:33:06.381Z,3.70
2023-03-26T23:35:34.322Z,3.69
2023-03-26T23:38:00.835Z,3.58
2023-03-26T23:40:27.266Z,3.64
2023-03-26T23:42:53.774Z,3.49
2023-03-26T23:45:20.269Z,3.47
2023-03-26T23:47:46.796Z,3.43
2023-03-26T23:50:13.307Z,3.51
2023-03-26T23:52:41.158Z,3.41
2023-03-26T23:55:08.401Z,3.36
2023-03-26T23:57:34.870Z,3.32
